Time;durP1;ratioP1;P1;durP2;ratioP2;P2;SDS_P1;SDS_P2;PMS_P1;PMS_P2;Temp;Humidity;BMP_temperature;BMP_pressure;BME280_temperature;BME280_humidity;BME280_pressure;Samples;Min_cycle;Max_cycle;Signal;HPM_P1;HPM_P2
2021/09/04 00:01:37;;;;;;;;;;;;;;;27.28;32.45;101016.94;4959677;29;760;-31
2021/09/04 00:04:02;;;;;;;;;;;;;;;27.28;32.76;101018.81;4959267;29;812;-30
2021/09/04 00:06:28;;;;;;;;;;;;;;;27.47;31.83;101014.81;4959055;29;1057;-32
2021/09/04 00:08:53;;;;;;;;;;;;;;;27.33;31.98;101008.28;4959799;29;1902;-29
2021/09/04 00:11:19;;;;;;;;;;;;;;;27.27;32.06;101007.16;4959767;29;836;-29
2021/09/04 00:13:44;;;;;;;;;;;;;;;27.26;32.38;101003.63;4958500;29;1009;-29
2021/09/04 00:16:10;;;;;;;;;;;;;;;27.23;32.24;101001.28;4959305;29;1081;-31
2021/09/04 00:18:35;;;;;;;;;;;;;;;27.21;32.52;101007.88;4959504;28;839;-29
2021/09/04 00:21:01;;;;;;;;;;;;;;;27.24;32.06;100997.53;4959243;29;820;-29
2021/09/04 00:23:26;;;;;;;;;;;;;;;27.30;32.28;101001.41;4959010;29;872;-29
2021/09/04 00:25:52;;;;;;;;;;;;;;;27.25;32.23;101003.78;4959022;28;752;-29
2021/09/04 00:28:17;;;;;;;;;;;;;;;27.25;32.21;101007.34;4959040;28;974;-29
2021/09/04 00:30:42;;;;;;;;;;;;;;;27.28;31.85;101008.00;4958467;29;1982;-30
2021/09/04 00:33:07;;;;;;;;;;;;;;;27.19;32.19;101012.63;4959280;29;764;-31
2021/09/04 00:35:33;;;;;;;;;;;;;;;27.18;31.95;101019.00;4958904;29;833;-28
2021/09/04 00:37:58;;;;;;;;;;;;;;;27.21;31.93;101007.88;4958661;29;780;-28
2021/09/04 00:40:23;;;;;;;;;;;;;;;27.13;32.15;101008.75;4959144;29;761;-29
2021/09/04 00:42:49;;;;;;;;;;;;;;;27.10;31.81;101004.56;4958840;29;784;-29
2021/09/04 00:45:14;;;;;;;;;;;;;;;27.17;31.76;100996.59;4958311;29;966;-29
2021/09/04 00:47:56;;;;;;;;;;;;;;;27.15;32.07;100990.53;4958905;28;838;-29
2021/09/04 00:50:21;;;;;;;;;;;;;;;27.17;31.91;100999.28;4958769;28;1914;-29
2021/09/04 00:52:46;;;;;;;;;;;;;;;27.14;31.90;100992.38;4958532;29;828;-31
2021/09/04 00:55:12;;;;;;;;;;;;;;;27.13;31.99;100997.94;4957830;28;820;-29
2021/09/04 00:57:37;;;;;;;;;;;;;;;27.15;32.31;100979.72;4958493;29;852;-32
2021/09/04 01:00:02;;;;;;;;;;;;;;;27.19;31.83;100982.91;4940473;29;970;-28
2021/09/04 01:02:30;;;;;;;;;;;;;;;27.16;32.18;100985.97;4958714;29;799;-32
2021/09/04 01:04:55;;;;;;;;;;;;;;;27.22;32.24;100983.41;4958331;28;853;-29
2021/09/04 01:07:20;;;;;;;;;;;;;;;27.20;32.14;100979.19;4958409;29;788;-31
2021/09/04 01:09:45;;;;;;;;;;;;;;;27.20;32.64;100979.19;4958763;29;1977;-29
2021/09/04 01:12:11;;;;;;;;;;;;;;;27.16;32.62;100975.97;4941214;29;789;-31
2021/09/04 01:14:36;;;;;;;;;;;;;;;27.10;32.83;100976.69;4957883;29;962;-31
2021/09/04 01:17:01;;;;;;;;;;;;;;;27.04;32.71;100963.91;4958098;29;1080;-29
2021/09/04 01:19:27;;;;;;;;;;;;;;;27.05;32.90;100957.50;4958188;29;801;-32
2021/09/04 01:21:52;;;;;;;;;;;;;;;27.09;32.80;100961.53;4958019;29;828;-31
2021/09/04 01:24:17;;;;;;;;;;;;;;;27.06;32.82;100961.88;4941115;29;768;-29
2021/09/04 01:26:43;;;;;;;;;;;;;;;27.09;32.86;100966.94;4958056;29;832;-28
2021/09/04 01:29:08;;;;;;;;;;;;;;;27.08;32.71;100971.47;4957603;29;1914;-32
2021/09/04 01:31:33;;;;;;;;;;;;;;;26.24;32.64;100841.44;4958056;29;776;-31
2021/09/04 01:33:59;;;;;;;;;;;;;;;27.13;32.70;100970.94;4957940;29;733;-29
2021/09/04 01:36:28;;;;;;;;;;;;;;;27.04;33.06;100966.63;4957923;29;719;-31
2021/09/04 01:38:53;;;;;;;;;;;;;;;27.08;32.82;100960.69;4957973;29;843;-29
2021/09/04 01:41:19;;;;;;;;;;;;;;;27.14;32.54;100959.16;4958039;29;820;-29
2021/09/04 01:43:44;;;;;;;;;;;;;;;27.09;32.72;100967.75;4957558;29;1006;-29
2021/09/04 01:46:09;;;;;;;;;;;;;;;27.11;32.68;100971.13;4957625;29;847;-29
2021/09/04 01:48:35;;;;;;;;;;;;;;;27.12;32.75;100975.53;4957866;29;820;-31
2021/09/04 01:51:00;;;;;;;;;;;;;;;27.08;32.84;100962.53;4957587;29;2037;-29
2021/09/04 01:53:25;;;;;;;;;;;;;;;27.02;33.15;100956.84;4957662;29;804;-29
2021/09/04 01:55:50;;;;;;;;;;;;;;;27.13;32.75;100968.25;4958014;29;840;-29
2021/09/04 01:58:16;;;;;;;;;;;;;;;27.02;33.00;100956.84;4957369;29;969;-30
2021/09/04 02:00:41;;;;;;;;;;;;;;;27.13;33.10;100961.00;4957507;29;836;-31
2021/09/04 02:03:06;;;;;;;;;;;;;;;27.27;33.40;100963.94;4958236;29;832;-30
2021/09/04 02:05:31;;;;;;;;;;;;;;;27.35;33.50;100963.91;4957162;29;860;-29
2021/09/04 02:07:58;;;;;;;;;;;;;;;27.39;33.61;100967.91;4961097;28;812;-33
2021/09/04 02:10:23;;;;;;;;;;;;;;;27.38;33.68;100971.63;4961682;28;1955;-30
2021/09/04 02:12:49;;;;;;;;;;;;;;;27.31;33.71;100969.84;4961169;29;816;-30
2021/09/04 02:15:17;;;;;;;;;;;;;;;27.39;34.19;100972.50;4961005;29;1005;-30
2021/09/04 02:17:42;;;;;;;;;;;;;;;27.42;33.85;100958.63;4961874;29;1229;-30
2021/09/04 02:20:08;;;;;;;;;;;;;;;27.49;34.05;100947.94;4961322;29;859;-30
2021/09/04 02:22:33;;;;;;;;;;;;;;;27.42;34.22;100945.09;4961544;29;853;-30
2021/09/04 02:24:58;;;;;;;;;;;;;;;27.48;34.18;100946.22;4961478;29;784;-30
2021/09/04 02:27:24;;;;;;;;;;;;;;;27.49;34.71;100954.16;4960741;29;800;-31
2021/09/04 02:29:49;;;;;;;;;;;;;;;27.46;34.57;100951.81;4961032;29;1911;-29
2021/09/04 02:32:14;;;;;;;;;;;;;;;27.51;34.72;100948.56;4961511;29;824;-29
2021/09/04 02:34:39;;;;;;;;;;;;;;;27.55;34.85;100940.94;4961079;29;848;-33
2021/09/04 02:37:05;;;;;;;;;;;;;;;27.57;35.02;100945.16;4961346;29;769;-29
2021/09/04 02:39:30;;;;;;;;;;;;;;;27.63;34.82;100935.47;4961084;29;824;-29
2021/09/04 02:41:55;;;;;;;;;;;;;;;27.49;35.46;100931.72;4960758;29;760;-29
2021/09/04 02:44:20;;;;;;;;;;;;;;;27.53;35.04;100935.72;4961004;29;1026;-29
2021/09/04 02:46:46;;;;;;;;;;;;;;;27.62;35.16;100934.66;4961026;29;879;-29
2021/09/04 02:49:11;;;;;;;;;;;;;;;27.61;35.39;100932.94;4960565;29;1902;-30
2021/09/04 02:51:39;;;;;;;;;;;;;;;27.61;35.44;100929.44;4960820;29;785;-30
2021/09/04 02:54:04;;;;;;;;;;;;;;;27.55;35.70;100930.13;4961105;28;762;-32
2021/09/04 02:56:29;;;;;;;;;;;;;;;27.68;35.88;100924.09;4960272;29;875;-30
2021/09/04 02:58:55;;;;;;;;;;;;;;;27.67;37.28;100923.28;4960452;28;954;-29
2021/09/04 03:01:20;;;;;;;;;;;;;;;27.62;37.49;100914.88;4960840;29;805;-30
2021/09/04 03:03:45;;;;;;;;;;;;;;;27.67;37.82;100914.34;4960376;29;891;-30
2021/09/04 03:06:11;;;;;;;;;;;;;;;27.53;37.77;100916.00;4960386;29;860;-29
2021/09/04 03:08:36;;;;;;;;;;;;;;;27.58;37.70;100905.44;4961287;29;788;-29
2021/09/04 03:11:02;;;;;;;;;;;;;;;26.98;34.33;100911.44;4960657;29;1979;-27
2021/09/04 03:13:27;;;;;;;;;;;;;;;26.63;33.42;100911.78;4943011;29;1499;-27
2021/09/04 03:15:52;;;;;;;;;;;;;;;26.30;34.44;100912.72;4959900;28;1085;-28
2021/09/04 03:18:18;;;;;;;;;;;;;;;25.70;35.15;100904.94;4959059;28;836;-27
2021/09/04 03:20:43;;;;;;;;;;;;;;;25.40;35.00;100904.56;4960192;29;875;-27
2021/09/04 03:23:08;;;;;;;;;;;;;;;25.61;34.85;100906.75;4960086;28;874;-27
2021/09/04 03:25:34;;;;;;;;;;;;;;;25.51;35.03;100906.94;4960684;29;797;-27
2021/09/04 03:27:59;;;;;;;;;;;;;;;25.21;34.38;100906.56;4960054;28;766;-28
2021/09/04 03:30:24;;;;;;;;;;;;;;;25.13;34.89;100907.41;4959746;29;1910;-27
2021/09/04 03:32:50;;;;;;;;;;;;;;;25.14;35.27;100905.56;4960119;28;799;-27
2021/09/04 03:35:15;;;;;;;;;;;;;;;25.07;35.11;100914.28;4959708;29;840;-27
2021/09/04 03:37:40;;;;;;;;;;;;;;;25.00;34.68;100913.28;4959933;29;808;-27
2021/09/04 03:40:06;;;;;;;;;;;;;;;24.85;34.33;100928.31;4960603;29;792;-27
2021/09/04 03:42:31;;;;;;;;;;;;;;;24.35;34.62;100934.34;4960165;29;837;-27
2021/09/04 03:44:56;;;;;;;;;;;;;;;24.46;34.60;100934.06;4959647;29;926;-27
2021/09/04 03:47:22;;;;;;;;;;;;;;;23.26;36.03;100937.97;4959850;29;761;-27
2021/09/04 03:49:47;;;;;;;;;;;;;;;24.17;35.49;100932.53;4960028;29;1906;-27
2021/09/04 03:52:12;;;;;;;;;;;;;;;24.28;34.98;100923.38;4959846;29;780;-28
2021/09/04 03:54:37;;;;;;;;;;;;;;;24.23;34.92;100917.63;4959985;29;773;-27
2021/09/04 03:57:03;;;;;;;;;;;;;;;23.95;35.40;100917.78;4959363;28;783;-27
2021/09/04 03:59:28;;;;;;;;;;;;;;;24.29;34.83;100913.47;4959343;29;896;-28
2021/09/04 04:01:53;;;;;;;;;;;;;;;24.20;35.09;100916.13;4959956;29;820;-27
2021/09/04 04:04:19;;;;;;;;;;;;;;;24.43;34.55;100902.13;4959485;29;829;-34
2021/09/04 04:06:44;;;;;;;;;;;;;;;24.75;33.87;100899.72;4959456;29;741;-29
2021/09/04 04:09:09;;;;;;;;;;;;;;;24.64;34.17;100900.84;4959407;29;1977;-29
2021/09/04 04:11:34;;;;;;;;;;;;;;;24.46;35.35;100903.63;4959645;29;790;-30
2021/09/04 04:14:00;;;;;;;;;;;;;;;24.67;35.12;100903.22;4959428;29;1013;-29
2021/09/04 04:16:25;;;;;;;;;;;;;;;24.62;35.27;100905.56;4959542;29;1055;-31
2021/09/04 04:18:50;;;;;;;;;;;;;;;25.00;34.31;100913.28;4959082;29;841;-28
2021/09/04 04:21:16;;;;;;;;;;;;;;;25.16;34.12;100908.91;4959540;29;760;-29
2021/09/04 04:23:41;;;;;;;;;;;;;;;25.23;34.62;100925.25;4959355;29;820;-28
2021/09/04 04:26:06;;;;;;;;;;;;;;;25.25;34.51;100925.94;4958696;28;812;-29
2021/09/04 04:28:32;;;;;;;;;;;;;;;25.20;34.72;100929.13;4958984;29;1175;-29
2021/09/04 04:30:57;;;;;;;;;;;;;;;25.30;34.65;100937.91;4958960;28;1891;-31
2021/09/04 04:33:22;;;;;;;;;;;;;;;25.43;34.48;100936.56;4958908;29;807;-29
2021/09/04 04:35:47;;;;;;;;;;;;;;;25.40;34.37;100943.13;4959060;29;796;-30
2021/09/04 04:38:13;;;;;;;;;;;;;;;25.38;34.70;100947.81;4959153;29;816;-29
2021/09/04 04:40:38;;;;;;;;;;;;;;;25.39;34.77;100946.00;4958742;29;865;-29
2021/09/04 04:43:03;;;;;;;;;;;;;;;25.43;34.39;100947.31;4959265;29;796;-32
2021/09/04 04:45:29;;;;;;;;;;;;;;;25.41;34.84;100941.25;4959115;29;1005;-30
2021/09/04 04:47:54;;;;;;;;;;;;;;;25.29;35.01;100933.50;4958114;29;764;-28
2021/09/04 04:50:19;;;;;;;;;;;;;;;25.45;34.87;100926.47;4958744;29;1911;-33
2021/09/04 04:52:45;;;;;;;;;;;;;;;25.48;34.74;100931.50;4958782;29;567;-32
2021/09/04 04:55:10;;;;;;;;;;;;;;;25.55;34.64;100937.91;4958415;29;761;-29
2021/09/04 04:57:36;;;;;;;;;;;;;;;25.42;35.19;100937.56;4958949;29;1407;-29
2021/09/04 05:00:01;;;;;;;;;;;;;;;25.49;34.78;100938.56;4958451;29;969;-29
2021/09/04 05:02:26;;;;;;;;;;;;;;;25.60;34.81;100929.31;4958194;29;810;-28
2021/09/04 05:04:52;;;;;;;;;;;;;;;25.63;34.63;100929.03;4958984;29;872;-29
2021/09/04 05:07:17;;;;;;;;;;;;;;;25.75;34.47;100936.75;4958557;28;862;-27
2021/09/04 05:09:42;;;;;;;;;;;;;;;25.82;34.78;100932.38;4958026;29;1907;-27
2021/09/04 05:12:08;;;;;;;;;;;;;;;25.86;34.54;100938.28;4958872;29;768;-35
2021/09/04 05:14:33;;;;;;;;;;;;;;;25.85;34.64;100933.88;4958223;29;911;-28
2021/09/04 05:16:58;;;;;;;;;;;;;;;25.70;34.88;100928.34;4957975;29;1042;-28
2021/09/04 05:19:23;;;;;;;;;;;;;;;25.78;35.22;100934.56;4958361;29;911;-27
2021/09/04 05:21:49;;;;;;;;;;;;;;;25.76;34.71;100925.81;4958586;29;808;-28
2021/09/04 05:24:17;;;;;;;;;;;;;;;25.83;34.90;100917.88;4958333;29;816;-29
2021/09/04 05:26:42;;;;;;;;;;;;;;;25.96;34.85;100913.84;4957819;28;790;-28
2021/09/04 05:29:08;;;;;;;;;;;;;;;26.07;34.76;100902.69;4957883;29;1914;-29
2021/09/04 05:31:33;;;;;;;;;;;;;;;26.09;34.51;100900.66;4958234;29;908;-28
2021/09/04 05:33:58;;;;;;;;;;;;;;;26.10;34.40;100905.03;4958070;29;808;-29
2021/09/04 05:36:24;;;;;;;;;;;;;;;26.17;34.29;100903.31;4958027;29;903;-28
2021/09/04 05:38:49;;;;;;;;;;;;;;;26.10;34.13;100905.03;4957962;29;844;-28
2021/09/04 05:41:14;;;;;;;;;;;;;;;26.13;34.42;100911.94;4957641;28;804;-32
2021/09/04 05:43:40;;;;;;;;;;;;;;;26.24;34.41;100913.44;4957933;29;966;-28
2021/09/04 05:46:05;;;;;;;;;;;;;;;26.19;34.31;100911.25;4958114;29;758;-29
2021/09/04 05:48:30;;;;;;;;;;;;;;;26.20;34.06;100910.25;4957505;28;827;-28
2021/09/04 05:50:56;;;;;;;;;;;;;;;26.25;34.10;100912.41;4957767;29;1963;-33
2021/09/04 05:53:21;;;;;;;;;;;;;;;26.27;33.91;100905.84;4957891;29;785;-28
2021/09/04 05:55:46;;;;;;;;;;;;;;;26.33;34.21;100904.31;4957692;29;777;-34
2021/09/04 05:58:11;;;;;;;;;;;;;;;26.27;34.07;100905.00;4957852;29;840;-29
2021/09/04 06:00:40;;;;;;;;;;;;;;;26.24;34.34;100908.03;4957589;29;958;-34
2021/09/04 06:03:05;;;;;;;;;;;;;;;26.22;34.57;100910.06;4958017;29;761;-27
2021/09/04 06:05:31;;;;;;;;;;;;;;;26.25;34.35;100915.97;4957469;28;750;-27
2021/09/04 06:07:56;;;;;;;;;;;;;;;26.61;34.30;100920.06;4958006;29;917;-29
2021/09/04 06:10:22;;;;;;;;;;;;;;;26.80;34.43;100919.81;4957408;29;1902;-29
2021/09/04 06:12:47;;;;;;;;;;;;;;;26.93;34.37;100930.03;4957669;29;765;-29
2021/09/04 06:15:12;;;;;;;;;;;;;;;27.02;34.10;100929.00;4957539;29;946;-30
2021/09/04 06:17:38;;;;;;;;;;;;;;;26.98;34.57;100925.78;4957119;29;1082;-32
2021/09/04 06:20:05;;;;;;;;;;;;;;;26.88;34.92;100928.72;4957728;29;824;-32
2021/09/04 06:22:34;;;;;;;;;;;;;;;26.77;35.75;100921.00;4957568;29;829;-31
2021/09/04 06:25:02;;;;;;;;;;;;;;;27.10;34.82;100915.44;4957357;29;769;-33
2021/09/04 06:27:27;;;;;;;;;;;;;;;27.11;35.09;100921.69;4957638;29;836;-34
2021/09/04 06:29:52;;;;;;;;;;;;;;;27.18;35.03;100916.41;4957209;29;1914;-34
2021/09/04 06:32:18;;;;;;;;;;;;;;;27.29;34.79;100925.97;4957290;28;733;-32
2021/09/04 06:34:43;;;;;;;;;;;;;;;27.42;34.82;100922.66;4956202;29;1107;-30
2021/09/04 06:37:08;;;;;;;;;;;;;;;27.53;34.64;100926.81;4957616;29;788;-32
2021/09/04 06:39:34;;;;;;;;;;;;;;;27.65;34.51;100929.88;4956961;29;839;-31
2021/09/04 06:41:59;;;;;;;;;;;;;;;27.56;34.17;100931.84;4957407;29;741;-31
2021/09/04 06:44:24;;;;;;;;;;;;;;;27.67;34.05;100939.50;4956863;29;926;-31
2021/09/04 06:46:49;;;;;;;;;;;;;;;27.71;33.40;100931.91;4957116;29;856;-32
2021/09/04 06:49:15;;;;;;;;;;;;;;;27.74;32.84;100931.53;4957333;29;1907;-30
2021/09/04 06:51:40;;;;;;;;;;;;;;;27.81;33.17;100932.47;4957263;29;777;-30
2021/09/04 06:54:05;;;;;;;;;;;;;;;27.86;32.92;100940.88;4959719;28;852;-30
2021/09/04 06:56:31;;;;;;;;;;;;;;;27.82;32.90;100946.84;4960640;29;812;-29
2021/09/04 06:58:56;;;;;;;;;;;;;;;27.89;32.34;100944.25;4960459;29;1439;-31
2021/09/04 07:01:24;;;;;;;;;;;;;;;27.96;32.58;100935.19;4960576;29;828;-28
2021/09/04 07:03:50;;;;;;;;;;;;;;;27.98;31.99;100935.88;4960779;29;785;-31
2021/09/04 07:06:15;;;;;;;;;;;;;;;27.99;32.61;100945.66;4960863;29;799;-30
2021/09/04 07:08:40;;;;;;;;;;;;;;;28.15;31.80;100933.00;4960562;29;784;-33
2021/09/04 07:11:05;;;;;;;;;;;;;;;28.14;31.75;100930.47;4960295;29;1953;-33
2021/09/04 07:13:31;;;;;;;;;;;;;;;28.29;31.36;100931.31;4960483;29;1015;-32
2021/09/04 07:15:59;;;;;;;;;;;;;;;28.24;31.54;100933.75;4959883;29;1239;-31
2021/09/04 07:18:26;;;;;;;;;;;;;;;28.31;31.34;100931.94;4960668;29;872;-30
2021/09/04 07:20:52;;;;;;;;;;;;;;;28.34;31.57;100945.13;4960444;29;892;-30
2021/09/04 07:23:17;;;;;;;;;;;;;;;28.17;32.15;100944.47;4959870;29;769;-29
2021/09/04 07:25:42;;;;;;;;;;;;;;;28.16;31.75;100945.47;4960662;29;904;-29
2021/09/04 07:28:07;;;;;;;;;;;;;;;28.34;31.56;100947.03;4960397;29;919;-30
2021/09/04 07:30:33;;;;;;;;;;;;;;;28.45;32.23;100948.41;4959501;29;1910;-30
2021/09/04 07:32:59;;;;;;;;;;;;;;;28.48;31.69;100945.31;4960478;29;745;-31
2021/09/04 07:35:24;;;;;;;;;;;;;;;28.55;31.68;100945.41;4959932;29;797;-30
2021/09/04 07:37:52;;;;;;;;;;;;;;;28.55;31.37;100945.41;4959714;28;852;-30
2021/09/04 07:40:19;;;;;;;;;;;;;;;28.57;31.21;100944.22;4960593;29;847;-31
2021/09/04 07:42:45;;;;;;;;;;;;;;;28.44;31.02;100944.03;4960068;28;738;-30
2021/09/04 07:45:10;;;;;;;;;;;;;;;28.52;30.81;100943.09;4959603;29;958;-30
2021/09/04 07:47:35;;;;;;;;;;;;;;;28.65;30.71;100945.13;4959973;28;787;-31
2021/09/04 07:50:01;;;;;;;;;;;;;;;28.60;31.52;100940.28;4960025;29;1956;-31
2021/09/04 07:52:26;;;;;;;;;;;;;;;28.60;31.77;100945.69;4959578;29;812;-30
2021/09/04 07:54:51;;;;;;;;;;;;;;;28.65;31.97;100942.41;4960246;28;856;-30
2021/09/04 07:57:17;;;;;;;;;;;;;;;28.70;31.02;100945.41;4958559;29;1111;-31
2021/09/04 07:59:42;;;;;;;;;;;;;;;28.85;30.62;100929.97;4959587;29;994;-30
2021/09/04 08:02:09;;;;;;;;;;;;;;;28.77;29.92;100931.94;4959324;29;899;-29
2021/09/04 08:04:34;;;;;;;;;;;;;;;28.78;30.90;100925.53;4958735;28;813;-30
2021/09/04 08:07:00;;;;;;;;;;;;;;;28.81;31.35;100911.59;4959790;29;757;-32
2021/09/04 08:09:25;;;;;;;;;;;;;;;28.63;32.10;100928.25;4959312;29;1906;-31
2021/09/04 08:11:50;;;;;;;;;;;;;;;28.74;32.25;100916.94;4959353;29;801;-32
2021/09/04 08:14:16;;;;;;;;;;;;;;;28.70;32.17;100912.91;4959390;29;965;-31
2021/09/04 08:16:41;;;;;;;;;;;;;;;28.74;31.58;100919.63;4959453;29;1171;-30
2021/09/04 08:19:06;;;;;;;;;;;;;;;28.88;31.09;100909.78;4959386;29;807;-30
2021/09/04 08:21:31;;;;;;;;;;;;;;;28.34;29.99;100907.25;4959422;29;777;-31
2021/09/04 08:23:57;;;;;;;;;;;;;;;28.48;30.38;100902.88;4959236;28;771;-31
2021/09/04 08:26:22;;;;;;;;;;;;;;;28.63;31.12;100912.81;4958993;28;914;-29
2021/09/04 08:28:47;;;;;;;;;;;;;;;28.92;31.17;100908.38;4959171;29;1054;-30
2021/09/04 08:31:14;;;;;;;;;;;;;;;28.86;31.38;100909.16;4958406;29;1964;-30
2021/09/04 08:33:39;;;;;;;;;;;;;;;28.83;31.91;100894.13;4959145;29;780;-30
2021/09/04 08:36:04;;;;;;;;;;;;;;;28.82;31.90;100897.03;4959098;29;851;-29
2021/09/04 08:38:30;;;;;;;;;;;;;;;28.89;31.83;100895.22;4958729;29;835;-29
2021/09/04 08:40:55;;;;;;;;;;;;;;;28.82;31.74;100894.31;4954564;28;1288;-29
2021/09/04 08:43:20;;;;;;;;;;;;;;;28.93;31.65;100890.25;4958352;29;885;-29
2021/09/04 08:45:46;;;;;;;;;;;;;;;28.85;32.14;100885.81;4940908;29;1284;-30
2021/09/04 08:48:11;;;;;;;;;;;;;;;28.88;32.07;100890.84;4958843;29;780;-30
2021/09/04 08:50:36;;;;;;;;;;;;;;;28.48;32.70;100880.38;4941581;29;1906;-30
2021/09/04 08:53:02;;;;;;;;;;;;;;;28.47;31.53;100882.28;4957006;29;738;-29
2021/09/04 08:55:27;;;;;;;;;;;;;;;28.79;31.42;100883.88;4958085;29;734;-29
2021/09/04 08:57:53;;;;;;;;;;;;;;;27.97;30.80;100766.56;4958255;29;829;-29
2021/09/04 09:00:35;;;;;;;;;;;;;;;28.42;29.64;100889.25;4940443;29;1285;-29
2021/09/04 09:03:00;;;;;;;;;;;;;;;28.56;30.82;100884.88;4958504;29;753;-29
2021/09/04 09:05:25;;;;;;;;;;;;;;;28.63;30.83;100883.06;4958472;29;753;-29
2021/09/04 09:07:51;;;;;;;;;;;;;;;28.85;30.15;100886.66;4940806;29;1297;-29
2021/09/04 09:10:19;;;;;;;;;;;;;;;28.84;29.83;100884.13;4958774;29;1902;-29
2021/09/04 09:12:44;;;;;;;;;;;;;;;28.55;30.88;100873.19;4958193;29;753;-30
2021/09/04 09:15:10;;;;;;;;;;;;;;;28.49;29.97;100892.91;4957689;29;970;-29
2021/09/04 09:17:35;;;;;;;;;;;;;;;27.99;29.52;100896.16;4937194;29;1489;-30
2021/09/04 09:20:04;;;;;;;;;;;;;;;28.67;29.92;100894.34;4938907;29;840;-29
2021/09/04 09:22:30;;;;;;;;;;;;;;;27.95;29.06;100894.84;4938543;29;813;-30
2021/09/04 09:25:07;;;;;;;;;;;;;;;28.32;30.06;100893.06;4937779;29;1295;-29
2021/09/04 09:27:32;;;;;;;;;;;;;;;28.67;30.08;100892.50;4938937;29;868;-30
2021/09/04 09:29:57;;;;;;;;;;;;;;;28.71;30.14;100893.78;4938428;29;1914;-30
2021/09/04 09:32:23;;;;;;;;;;;;;;;28.75;29.90;100893.38;4938617;29;817;-29
2021/09/04 09:34:49;;;;;;;;;;;;;;;28.92;29.95;100902.13;4938409;29;800;-29
2021/09/04 09:37:14;;;;;;;;;;;;;;;28.76;29.25;100895.91;4937030;29;1314;-30
2021/09/04 09:39:40;;;;;;;;;;;;;;;28.41;29.71;100910.06;4938940;29;793;-30
2021/09/04 09:42:06;;;;;;;;;;;;;;;28.01;30.25;100901.38;4938962;29;753;-29
2021/09/04 09:44:32;;;;;;;;;;;;;;;28.39;29.83;100890.50;4937643;29;969;-30
2021/09/04 09:46:58;;;;;;;;;;;;;;;28.55;29.46;100878.59;4938991;29;777;-29
2021/09/04 09:49:36;;;;;;;;;;;;;;;28.07;30.02;100887.94;4938690;29;1907;-29
2021/09/04 09:52:02;;;;;;;;;;;;;;;28.50;29.60;100880.19;4938288;29;801;-29
2021/09/04 09:54:30;;;;;;;;;;;;;;;29.01;29.36;100882.03;4920264;29;1254;-29
2021/09/04 09:56:56;;;;;;;;;;;;;;;29.05;29.85;100875.22;4919208;29;825;-29
2021/09/04 09:59:21;;;;;;;;;;;;;;;28.96;30.14;100877.16;4928106;29;954;-29
2021/09/04 10:01:47;;;;;;;;;;;;;;;28.53;29.51;100888.78;4938482;29;860;-29
2021/09/04 10:04:12;;;;;;;;;;;;;;;28.58;30.47;100877.38;4936851;29;973;-29
2021/09/04 10:06:37;;;;;;;;;;;;;;;28.40;29.33;100872.38;4937111;29;811;-29
2021/09/04 10:09:02;;;;;;;;;;;;;;;28.57;29.37;100868.44;4937190;29;1338;-29
2021/09/04 10:11:28;;;;;;;;;;;;;;;28.46;29.06;100872.44;4938358;29;772;-29
2021/09/04 10:13:53;;;;;;;;;;;;;;;28.55;28.64;100873.19;4926646;29;1190;-29
2021/09/04 10:16:18;;;;;;;;;;;;;;;28.16;28.41;100861.63;4926374;29;1182;-29
2021/09/04 10:18:44;;;;;;;;;;;;;;;27.90;28.71;100860.25;4940147;29;1197;-29
2021/09/04 10:21:11;;;;;;;;;;;;;;;28.43;29.08;100863.88;4935516;29;1075;-29
2021/09/04 10:23:40;;;;;;;;;;;;;;;28.97;29.44;100864.50;4938089;29;844;-29
2021/09/04 10:26:23;;;;;;;;;;;;;;;28.62;28.72;100865.16;4938291;29;801;-30
2021/09/04 10:29:01;;;;;;;;;;;;;;;28.16;27.72;100867.03;4945060;29;943;-29
2021/09/04 10:31:45;;;;;;;;;;;;;;;28.65;28.09;100875.59;4961331;29;1914;-30
2021/09/04 10:34:14;;;;;;;;;;;;;;;29.17;28.94;100864.72;4961701;28;776;-29
2021/09/04 10:36:56;;;;;;;;;;;;;;;29.21;29.01;100874.09;4960643;29;773;-30
2021/09/04 10:39:21;;;;;;;;;;;;;;;28.49;27.76;100887.50;4961093;29;769;-30
2021/09/04 10:41:47;;;;;;;;;;;;;;;28.91;27.33;100885.03;4961438;29;781;-30
2021/09/04 10:44:12;;;;;;;;;;;;;;;28.62;28.01;100896.78;4942612;29;1535;-30
2021/09/04 10:46:37;;;;;;;;;;;;;;;28.95;27.66;100889.03;4943837;29;860;-29
2021/09/04 10:49:03;;;;;;;;;;;;;;;29.31;28.11;100881.91;4943419;29;1391;-29
2021/09/04 10:51:48;;;;;;;;;;;;;;;29.47;28.11;100882.66;4960697;29;1914;-29
2021/09/04 10:54:35;;;;;;;;;;;;;;;29.25;27.66;100885.41;4961111;29;757;-30
2021/09/04 10:57:13;;;;;;;;;;;;;;;29.52;27.90;100879.38;4961068;29;2310;-30
2021/09/04 10:59:57;;;;;;;;;;;;;;;29.31;28.36;100883.78;4960213;29;993;-29
2021/09/04 11:02:22;;;;;;;;;;;;;;;28.87;28.35;100891.88;4960337;29;837;-30
2021/09/04 11:04:56;;;;;;;;;;;;;;;28.49;28.28;100882.06;4960534;29;824;-29
2021/09/04 11:07:40;;;;;;;;;;;;;;;28.73;28.52;100880.91;4960694;29;812;-30
2021/09/04 11:10:22;;;;;;;;;;;;;;;28.27;29.26;100881.97;4960920;29;1957;-30
2021/09/04 11:13:01;;;;;;;;;;;;;;;28.00;30.29;100895.13;4959859;29;875;-30
2021/09/04 11:15:27;;;;;;;;;;;;;;;28.19;30.27;100887.47;4942601;29;1450;-29
2021/09/04 11:17:52;;;;;;;;;;;;;;;28.38;29.79;100888.78;4960778;29;1299;-29
2021/09/04 11:20:17;;;;;;;;;;;;;;;29.08;29.45;100879.41;4959970;29;824;-30
2021/09/04 11:22:44;;;;;;;;;;;;;;;28.47;29.66;100876.00;4960302;29;919;-30
2021/09/04 11:25:38;;;;;;;;;;;;;;;29.13;28.93;100876.13;4960005;29;1078;-29
2021/09/04 11:28:03;;;;;;;;;;;;;;;29.41;28.75;100880.75;4958530;29;816;-31
2021/09/04 11:30:28;;;;;;;;;;;;;;;29.50;28.84;100871.44;4960200;29;1910;-29
2021/09/04 11:32:54;;;;;;;;;;;;;;;28.62;28.39;100734.41;4960253;29;840;-29
2021/09/04 11:35:21;;;;;;;;;;;;;;;29.30;28.91;100855.00;4959575;29;773;-29
2021/09/04 11:37:55;;;;;;;;;;;;;;;29.68;28.70;100856.56;4960315;29;816;-30
2021/09/04 11:40:25;;;;;;;;;;;;;;;29.85;28.22;100862.53;4958995;28;816;-30
2021/09/04 11:42:50;;;;;;;;;;;;;;;29.51;28.01;100862.25;4959691;29;828;-29
2021/09/04 11:45:22;;;;;;;;;;;;;;;29.64;28.48;100858.84;4960068;29;973;-30
2021/09/04 11:47:48;;;;;;;;;;;;;;;29.31;28.73;100848.56;4959954;29;788;-29
2021/09/04 11:50:26;;;;;;;;;;;;;;;29.77;28.74;100843.69;4959572;29;1899;-29
2021/09/04 11:52:52;;;;;;;;;;;;;;;29.55;28.75;100824.75;4959971;29;824;-30
2021/09/04 11:55:18;;;;;;;;;;;;;;;29.31;28.77;100826.91;4959508;29;815;-29
2021/09/04 11:57:44;;;;;;;;;;;;;;;29.79;29.07;100833.50;4959526;28;768;-30
2021/09/04 12:00:10;;;;;;;;;;;;;;;29.32;28.99;100840.25;4959696;29;1001;-29
2021/09/04 12:02:36;;;;;;;;;;;;;;;28.79;29.50;100837.84;4959538;29;784;-29
2021/09/04 12:05:05;;;;;;;;;;;;;;;29.30;28.73;100838.75;4959224;29;776;-29
2021/09/04 12:07:30;;;;;;;;;;;;;;;29.23;28.61;100835.16;4959484;29;830;-29
2021/09/04 12:09:55;;;;;;;;;;;;;;;29.68;28.98;100834.88;4959726;29;1894;-30
2021/09/04 12:12:39;;;;;;;;;;;;;;;29.51;28.70;100831.63;4959294;29;915;-29
2021/09/04 12:15:04;;;;;;;;;;;;;;;29.78;28.48;100834.56;4958955;29;946;-29
2021/09/04 12:17:30;;;;;;;;;;;;;;;29.82;28.99;100843.94;4941564;29;1166;-30
2021/09/04 12:19:55;;;;;;;;;;;;;;;29.24;28.87;100837.69;4959076;29;835;-30
2021/09/04 12:22:32;;;;;;;;;;;;;;;29.63;28.44;100843.59;4941876;29;1258;-29
2021/09/04 12:24:57;;;;;;;;;;;;;;;29.47;28.46;100842.00;4958721;29;782;-29
2021/09/04 12:27:38;;;;;;;;;;;;;;;29.95;29.05;100851.31;4941462;29;1210;-29
2021/09/04 12:30:04;;;;;;;;;;;;;;;29.61;28.85;100837.56;4958584;29;1898;-29
2021/09/04 12:32:32;;;;;;;;;;;;;;;29.49;29.10;100837.25;4958776;29;808;-29
2021/09/04 12:34:58;;;;;;;;;;;;;;;29.90;28.85;100835.66;4959004;29;746;-29
2021/09/04 12:37:26;;;;;;;;;;;;;;;30.05;29.15;100835.53;4958369;29;839;-29
2021/09/04 12:39:51;;;;;;;;;;;;;;;29.33;28.63;100830.22;4959034;29;824;-29
2021/09/04 12:42:17;;;;;;;;;;;;;;;29.51;29.02;100824.31;4958796;29;788;-29
2021/09/04 12:44:43;;;;;;;;;;;;;;;29.51;28.41;100816.19;4958266;29;1009;-28
2021/09/04 12:47:09;;;;;;;;;;;;;;;29.50;28.63;100816.38;4958784;29;773;-28
2021/09/04 12:49:37;;;;;;;;;;;;;;;29.43;28.07;100806.34;4958593;29;1959;-28
2021/09/04 12:52:04;;;;;;;;;;;;;;;29.12;27.75;100809.44;4958512;28;749;-29